KECP

Northwest Florida Beaches International Airport

Airport
ICAO code
KECP
Summary
ICAO Region
NAM
ICAO Territory
Location

Panama City Beach, Florida,

Elevation
69 ft
Coordinates
30° 21' 18" N , 85° 47' 58" W
KCC
Metar
KECP 151853Z 16008KT 10SM CLR 36/19 A2993 RMK AO1 SLP145 T03560189

Description

The Northwest Florida Beaches International Airport is an international airport located north of Panama City Beach, Florida.

Climatology

Humid “subtropical” climate (Köppen climate classification Cfa) - characterized by hot, humid summers and cool winters. Significant amounts of precipitation occur in all seasons in most areas.

Airport map

Aerial View

SKYbrary Partners:

Safety knowledge contributed by: